sensor_id;sensor_type;location;lat;lon;timestamp;temperature;humidity
8994;DHT22;4532;50.886;4.700;2022-08-01T00:01:20;24.10;95.80
8994;DHT22;4532;50.886;4.700;2022-08-01T00:03:47;24.10;95.70
8994;DHT22;4532;50.886;4.700;2022-08-01T00:06:15;24.10;95.70
8994;DHT22;4532;50.886;4.700;2022-08-01T00:08:42;24.00;95.90
8994;DHT22;4532;50.886;4.700;2022-08-01T00:11:09;24.00;95.70
8994;DHT22;4532;50.886;4.700;2022-08-01T00:13:36;24.00;95.80
8994;DHT22;4532;50.886;4.700;2022-08-01T00:16:04;24.00;95.70
8994;DHT22;4532;50.886;4.700;2022-08-01T00:18:31;24.00;95.70
8994;DHT22;4532;50.886;4.700;2022-08-01T00:20:58;24.00;95.70
8994;DHT22;4532;50.886;4.700;2022-08-01T00:23:27;24.00;95.80
8994;DHT22;4532;50.886;4.700;2022-08-01T00:25:55;24.00;95.80
8994;DHT22;4532;50.886;4.700;2022-08-01T00:28:22;24.00;96.00
8994;DHT22;4532;50.886;4.700;2022-08-01T00:30:52;24.00;96.00
8994;DHT22;4532;50.886;4.700;2022-08-01T00:33:25;24.00;95.90
8994;DHT22;4532;50.886;4.700;2022-08-01T00:35:55;24.00;96.00
8994;DHT22;4532;50.886;4.700;2022-08-01T00:38:25;23.90;95.90
8994;DHT22;4532;50.886;4.700;2022-08-01T00:40:54;23.90;96.00
8994;DHT22;4532;50.886;4.700;2022-08-01T00:43:22;23.90;96.10
8994;DHT22;4532;50.886;4.700;2022-08-01T00:45:56;23.90;96.00
8994;DHT22;4532;50.886;4.700;2022-08-01T00:48:23;23.90;96.00
8994;DHT22;4532;50.886;4.700;2022-08-01T00:50:51;23.90;96.10
8994;DHT22;4532;50.886;4.700;2022-08-01T00:53:18;23.90;96.10
8994;DHT22;4532;50.886;4.700;2022-08-01T00:55:49;23.90;96.10
8994;DHT22;4532;50.886;4.700;2022-08-01T00:58:16;23.90;96.00
8994;DHT22;4532;50.886;4.700;2022-08-01T01:00:50;23.90;96.10
8994;DHT22;4532;50.886;4.700;2022-08-01T01:03:22;23.90;96.10
8994;DHT22;4532;50.886;4.700;2022-08-01T01:09:23;23.90;96.30
8994;DHT22;4532;50.886;4.700;2022-08-01T01:14:45;23.80;96.20
8994;DHT22;4532;50.886;4.700;2022-08-01T01:17:20;23.80;96.20
8994;DHT22;4532;50.886;4.700;2022-08-01T01:20:12;23.80;96.40
8994;DHT22;4532;50.886;4.700;2022-08-01T01:30:35;23.70;96.20
8994;DHT22;4532;50.886;4.700;2022-08-01T01:33:06;23.70;96.40
8994;DHT22;4532;50.886;4.700;2022-08-01T01:35:46;23.70;96.30
8994;DHT22;4532;50.886;4.700;2022-08-01T01:38:21;23.70;96.40
8994;DHT22;4532;50.886;4.700;2022-08-01T01:40:52;23.70;96.40
8994;DHT22;4532;50.886;4.700;2022-08-01T01:43:23;23.70;96.40
8994;DHT22;4532;50.886;4.700;2022-08-01T01:46:00;23.70;96.50
8994;DHT22;4532;50.886;4.700;2022-08-01T01:48:32;23.60;96.40
8994;DHT22;4532;50.886;4.700;2022-08-01T01:51:01;23.60;96.40
8994;DHT22;4532;50.886;4.700;2022-08-01T01:53:30;23.60;96.50
8994;DHT22;4532;50.886;4.700;2022-08-01T01:56:02;23.60;96.50
8994;DHT22;4532;50.886;4.700;2022-08-01T01:58:31;23.60;96.50
8994;DHT22;4532;50.886;4.700;2022-08-01T02:01:02;23.60;96.90
8994;DHT22;4532;50.886;4.700;2022-08-01T02:03:34;23.60;96.60
8994;DHT22;4532;50.886;4.700;2022-08-01T02:06:03;23.60;96.60
8994;DHT22;4532;50.886;4.700;2022-08-01T02:08:34;23.60;96.60
8994;DHT22;4532;50.886;4.700;2022-08-01T02:11:05;23.60;96.60
8994;DHT22;4532;50.886;4.700;2022-08-01T02:14:12;23.60;96.70
8994;DHT22;4532;50.886;4.700;2022-08-01T02:16:42;23.60;96.90
8994;DHT22;4532;50.886;4.700;2022-08-01T02:19:11;23.60;96.70
8994;DHT22;4532;50.886;4.700;2022-08-01T02:21:51;23.60;96.80
8994;DHT22;4532;50.886;4.700;2022-08-01T02:24:36;23.60;96.70
8994;DHT22;4532;50.886;4.700;2022-08-01T02:27:13;23.60;96.80
8994;DHT22;4532;50.886;4.700;2022-08-01T02:29:47;23.60;96.80
8994;DHT22;4532;50.886;4.700;2022-08-01T02:32:23;23.60;96.80
8994;DHT22;4532;50.886;4.700;2022-08-01T02:34:56;23.60;96.80
8994;DHT22;4532;50.886;4.700;2022-08-01T02:37:26;23.60;96.80
8994;DHT22;4532;50.886;4.700;2022-08-01T02:39:56;23.60;96.90
8994;DHT22;4532;50.886;4.700;2022-08-01T02:42:25;23.60;96.80
8994;DHT22;4532;50.886;4.700;2022-08-01T02:44:59;23.60;96.80
8994;DHT22;4532;50.886;4.700;2022-08-01T02:47:29;23.60;96.90
8994;DHT22;4532;50.886;4.700;2022-08-01T02:50:00;23.60;96.90
8994;DHT22;4532;50.886;4.700;2022-08-01T02:52:28;23.60;97.20
8994;DHT22;4532;50.886;4.700;2022-08-01T02:54:58;23.60;97.00
8994;DHT22;4532;50.886;4.700;2022-08-01T02:57:27;23.60;97.00
8994;DHT22;4532;50.886;4.700;2022-08-01T03:00:18;23.60;97.00
8994;DHT22;4532;50.886;4.700;2022-08-01T03:02:47;23.60;97.10
8994;DHT22;4532;50.886;4.700;2022-08-01T03:05:20;23.50;97.10
8994;DHT22;4532;50.886;4.700;2022-08-01T03:07:48;23.50;97.10
8994;DHT22;4532;50.886;4.700;2022-08-01T03:10:16;23.50;97.10
8994;DHT22;4532;50.886;4.700;2022-08-01T03:12:48;23.50;97.20
8994;DHT22;4532;50.886;4.700;2022-08-01T03:15:19;23.50;97.20
8994;DHT22;4532;50.886;4.700;2022-08-01T03:17:51;23.50;97.20
8994;DHT22;4532;50.886;4.700;2022-08-01T03:20:23;23.50;97.10
8994;DHT22;4532;50.886;4.700;2022-08-01T03:22:53;23.50;97.20
8994;DHT22;4532;50.886;4.700;2022-08-01T03:25:23;23.50;97.30
8994;DHT22;4532;50.886;4.700;2022-08-01T03:27:56;23.50;97.30
8994;DHT22;4532;50.886;4.700;2022-08-01T03:30:26;23.50;97.40
8994;DHT22;4532;50.886;4.700;2022-08-01T03:32:54;23.40;97.20
8994;DHT22;4532;50.886;4.700;2022-08-01T03:35:25;23.40;97.30
8994;DHT22;4532;50.886;4.700;2022-08-01T03:37:55;23.40;97.40
8994;DHT22;4532;50.886;4.700;2022-08-01T03:43:26;23.40;97.50
8994;DHT22;4532;50.886;4.700;2022-08-01T03:45:58;23.30;97.50
8994;DHT22;4532;50.886;4.700;2022-08-01T03:48:29;23.30;97.70
8994;DHT22;4532;50.886;4.700;2022-08-01T03:50:58;23.30;97.70
8994;DHT22;4532;50.886;4.700;2022-08-01T03:53:30;23.30;97.60
8994;DHT22;4532;50.886;4.700;2022-08-01T03:56:00;23.30;97.70
8994;DHT22;4532;50.886;4.700;2022-08-01T03:58:29;23.20;97.80
8994;DHT22;4532;50.886;4.700;2022-08-01T04:00:59;23.20;97.80
8994;DHT22;4532;50.886;4.700;2022-08-01T04:03:28;23.20;97.80
8994;DHT22;4532;50.886;4.700;2022-08-01T04:05:55;23.20;97.90
8994;DHT22;4532;50.886;4.700;2022-08-01T04:08:22;23.20;98.00
8994;DHT22;4532;50.886;4.700;2022-08-01T04:10:56;23.20;98.00
8994;DHT22;4532;50.886;4.700;2022-08-01T04:13:26;23.20;98.00
8994;DHT22;4532;50.886;4.700;2022-08-01T04:16:05;23.10;98.10
8994;DHT22;4532;50.886;4.700;2022-08-01T04:18:33;23.10;98.30
8994;DHT22;4532;50.886;4.700;2022-08-01T04:21:03;23.10;98.30
8994;DHT22;4532;50.886;4.700;2022-08-01T04:23:35;23.00;98.20
8994;DHT22;4532;50.886;4.700;2022-08-01T04:26:09;23.00;98.30
8994;DHT22;4532;50.886;4.700;2022-08-01T04:28:38;23.00;98.40
8994;DHT22;4532;50.886;4.700;2022-08-01T04:31:08;23.00;98.50
8994;DHT22;4532;50.886;4.700;2022-08-01T04:33:42;23.00;98.60
8994;DHT22;4532;50.886;4.700;2022-08-01T04:36:11;23.00;98.60
8994;DHT22;4532;50.886;4.700;2022-08-01T04:38:45;23.00;98.60
8994;DHT22;4532;50.886;4.700;2022-08-01T04:41:13;22.90;98.70
8994;DHT22;4532;50.886;4.700;2022-08-01T04:43:41;22.90;98.60
8994;DHT22;4532;50.886;4.700;2022-08-01T04:46:11;22.90;98.60
8994;DHT22;4532;50.886;4.700;2022-08-01T04:48:43;22.90;98.70
8994;DHT22;4532;50.886;4.700;2022-08-01T04:51:16;22.90;98.70
8994;DHT22;4532;50.886;4.700;2022-08-01T04:53:44;22.90;98.80
8994;DHT22;4532;50.886;4.700;2022-08-01T04:56:13;22.90;98.80
8994;DHT22;4532;50.886;4.700;2022-08-01T04:58:43;22.90;98.80
8994;DHT22;4532;50.886;4.700;2022-08-01T05:01:11;22.90;98.80
8994;DHT22;4532;50.886;4.700;2022-08-01T05:03:38;22.90;98.90
8994;DHT22;4532;50.886;4.700;2022-08-01T05:06:08;22.80;98.90
8994;DHT22;4532;50.886;4.700;2022-08-01T05:08:35;22.80;99.10
8994;DHT22;4532;50.886;4.700;2022-08-01T05:11:03;22.80;99.00
8994;DHT22;4532;50.886;4.700;2022-08-01T05:13:31;22.80;99.00
8994;DHT22;4532;50.886;4.700;2022-08-01T05:15:58;22.80;99.10
8994;DHT22;4532;50.886;4.700;2022-08-01T05:18:28;22.80;99.10
8994;DHT22;4532;50.886;4.700;2022-08-01T05:20:56;22.80;99.10
8994;DHT22;4532;50.886;4.700;2022-08-01T05:23:23;22.80;99.10
8994;DHT22;4532;50.886;4.700;2022-08-01T05:26:11;22.80;99.00
8994;DHT22;4532;50.886;4.700;2022-08-01T05:28:42;22.80;99.10
8994;DHT22;4532;50.886;4.700;2022-08-01T05:31:09;22.80;99.30
8994;DHT22;4532;50.886;4.700;2022-08-01T05:33:36;22.70;99.10
8994;DHT22;4532;50.886;4.700;2022-08-01T05:36:04;22.80;99.20
8994;DHT22;4532;50.886;4.700;2022-08-01T05:38:34;22.80;99.20
8994;DHT22;4532;50.886;4.700;2022-08-01T05:41:03;22.80;99.20
8994;DHT22;4532;50.886;4.700;2022-08-01T05:43:31;22.80;99.30
8994;DHT22;4532;50.886;4.700;2022-08-01T05:46:01;22.80;99.30
8994;DHT22;4532;50.886;4.700;2022-08-01T05:48:30;22.80;99.30
8994;DHT22;4532;50.886;4.700;2022-08-01T05:50:58;22.80;99.50
8994;DHT22;4532;50.886;4.700;2022-08-01T05:53:25;22.90;99.60
8994;DHT22;4532;50.886;4.700;2022-08-01T05:55:52;22.80;99.50
8994;DHT22;4532;50.886;4.700;2022-08-01T05:58:20;22.80;99.50
8994;DHT22;4532;50.886;4.700;2022-08-01T06:00:47;22.90;99.50
8994;DHT22;4532;50.886;4.700;2022-08-01T06:03:14;22.90;99.60
8994;DHT22;4532;50.886;4.700;2022-08-01T06:05:42;22.90;99.60
8994;DHT22;4532;50.886;4.700;2022-08-01T06:08:11;22.90;99.60
8994;DHT22;4532;50.886;4.700;2022-08-01T06:10:41;22.90;99.60
8994;DHT22;4532;50.886;4.700;2022-08-01T06:13:08;22.90;99.70
8994;DHT22;4532;50.886;4.700;2022-08-01T06:15:40;22.90;99.60
8994;DHT22;4532;50.886;4.700;2022-08-01T06:18:07;22.90;99.60
8994;DHT22;4532;50.886;4.700;2022-08-01T06:20:34;22.90;99.80
8994;DHT22;4532;50.886;4.700;2022-08-01T06:23:01;22.90;99.70
8994;DHT22;4532;50.886;4.700;2022-08-01T06:25:52;22.90;99.70
8994;DHT22;4532;50.886;4.700;2022-08-01T06:28:23;22.90;99.80
8994;DHT22;4532;50.886;4.700;2022-08-01T06:30:53;22.90;99.80
8994;DHT22;4532;50.886;4.700;2022-08-01T06:33:20;23.00;99.90
8994;DHT22;4532;50.886;4.700;2022-08-01T06:35:47;23.00;99.80
8994;DHT22;4532;50.886;4.700;2022-08-01T06:38:15;23.10;99.90
8994;DHT22;4532;50.886;4.700;2022-08-01T06:40:44;23.10;99.80
8994;DHT22;4532;50.886;4.700;2022-08-01T06:43:12;23.10;99.90
8994;DHT22;4532;50.886;4.700;2022-08-01T06:45:40;23.20;99.90
8994;DHT22;4532;50.886;4.700;2022-08-01T06:48:07;23.20;99.90
8994;DHT22;4532;50.886;4.700;2022-08-01T06:50:40;23.20;99.90
8994;DHT22;4532;50.886;4.700;2022-08-01T06:53:09;23.30;99.90
8994;DHT22;4532;50.886;4.700;2022-08-01T06:55:39;23.30;99.90
8994;DHT22;4532;50.886;4.700;2022-08-01T06:58:06;23.40;99.90
8994;DHT22;4532;50.886;4.700;2022-08-01T07:00:34;23.50;99.90
8994;DHT22;4532;50.886;4.700;2022-08-01T07:03:05;23.50;99.90
8994;DHT22;4532;50.886;4.700;2022-08-01T07:05:32;23.50;99.90
8994;DHT22;4532;50.886;4.700;2022-08-01T07:08:00;23.60;99.90
8994;DHT22;4532;50.886;4.700;2022-08-01T07:10:27;23.60;99.90
8994;DHT22;4532;50.886;4.700;2022-08-01T07:12:54;23.50;99.90
8994;DHT22;4532;50.886;4.700;2022-08-01T07:15:22;23.50;99.90
8994;DHT22;4532;50.886;4.700;2022-08-01T07:17:55;23.50;99.90
8994;DHT22;4532;50.886;4.700;2022-08-01T07:20:26;23.60;99.90
8994;DHT22;4532;50.886;4.700;2022-08-01T07:22:53;23.60;99.90
8994;DHT22;4532;50.886;4.700;2022-08-01T07:25:22;23.70;99.90
8994;DHT22;4532;50.886;4.700;2022-08-01T07:27:50;23.70;99.90
8994;DHT22;4532;50.886;4.700;2022-08-01T07:30:19;23.70;99.90
8994;DHT22;4532;50.886;4.700;2022-08-01T07:32:47;23.80;99.90
8994;DHT22;4532;50.886;4.700;2022-08-01T07:35:14;23.90;99.90
8994;DHT22;4532;50.886;4.700;2022-08-01T07:37:41;23.90;99.90
8994;DHT22;4532;50.886;4.700;2022-08-01T07:40:18;23.90;99.90
8994;DHT22;4532;50.886;4.700;2022-08-01T07:42:48;24.00;99.90
8994;DHT22;4532;50.886;4.700;2022-08-01T07:45:18;24.00;99.90
8994;DHT22;4532;50.886;4.700;2022-08-01T07:47:50;24.00;99.90
8994;DHT22;4532;50.886;4.700;2022-08-01T07:50:17;24.00;99.90
8994;DHT22;4532;50.886;4.700;2022-08-01T07:52:44;24.00;99.90
8994;DHT22;4532;50.886;4.700;2022-08-01T07:55:12;24.10;99.90
8994;DHT22;4532;50.886;4.700;2022-08-01T07:57:42;24.10;99.90
8994;DHT22;4532;50.886;4.700;2022-08-01T08:00:12;24.10;99.90
8994;DHT22;4532;50.886;4.700;2022-08-01T08:02:40;24.20;99.90
8994;DHT22;4532;50.886;4.700;2022-08-01T08:05:13;24.20;99.90
8994;DHT22;4532;50.886;4.700;2022-08-01T08:07:40;24.30;99.90
8994;DHT22;4532;50.886;4.700;2022-08-01T08:10:10;24.30;99.90
8994;DHT22;4532;50.886;4.700;2022-08-01T08:12:38;24.30;99.90
8994;DHT22;4532;50.886;4.700;2022-08-01T08:15:06;24.30;99.90
8994;DHT22;4532;50.886;4.700;2022-08-01T08:17:35;24.40;99.90
8994;DHT22;4532;50.886;4.700;2022-08-01T08:20:06;24.40;99.90
8994;DHT22;4532;50.886;4.700;2022-08-01T08:22:36;24.50;99.90
8994;DHT22;4532;50.886;4.700;2022-08-01T08:25:04;24.50;99.90
8994;DHT22;4532;50.886;4.700;2022-08-01T08:27:33;24.60;99.90
8994;DHT22;4532;50.886;4.700;2022-08-01T08:30:05;24.70;99.90
8994;DHT22;4532;50.886;4.700;2022-08-01T08:32:35;24.80;99.90
8994;DHT22;4532;50.886;4.700;2022-08-01T08:35:03;24.90;99.90
8994;DHT22;4532;50.886;4.700;2022-08-01T08:37:36;24.90;99.90
8994;DHT22;4532;50.886;4.700;2022-08-01T08:40:19;25.00;99.90
8994;DHT22;4532;50.886;4.700;2022-08-01T08:42:48;25.10;99.90
8994;DHT22;4532;50.886;4.700;2022-08-01T08:45:15;25.10;99.90
8994;DHT22;4532;50.886;4.700;2022-08-01T08:47:43;25.10;99.90
8994;DHT22;4532;50.886;4.700;2022-08-01T08:50:15;25.10;99.80
8994;DHT22;4532;50.886;4.700;2022-08-01T08:52:43;25.10;99.90
8994;DHT22;4532;50.886;4.700;2022-08-01T08:55:12;25.20;99.90
8994;DHT22;4532;50.886;4.700;2022-08-01T08:57:44;25.10;99.60
8994;DHT22;4532;50.886;4.700;2022-08-01T09:00:13;25.20;99.70
8994;DHT22;4532;50.886;4.700;2022-08-01T09:02:43;25.20;99.60
8994;DHT22;4532;50.886;4.700;2022-08-01T09:05:11;25.30;99.70
8994;DHT22;4532;50.886;4.700;2022-08-01T09:07:45;25.30;99.60
8994;DHT22;4532;50.886;4.700;2022-08-01T09:10:12;25.30;99.40
8994;DHT22;4532;50.886;4.700;2022-08-01T09:12:39;25.30;99.40
8994;DHT22;4532;50.886;4.700;2022-08-01T09:18:32;25.40;99.40
8994;DHT22;4532;50.886;4.700;2022-08-01T09:23:47;25.50;99.40
8994;DHT22;4532;50.886;4.700;2022-08-01T09:28:57;25.50;99.30
8994;DHT22;4532;50.886;4.700;2022-08-01T09:31:27;25.60;99.20
8994;DHT22;4532;50.886;4.700;2022-08-01T09:34:04;25.50;99.20
8994;DHT22;4532;50.886;4.700;2022-08-01T09:36:54;25.60;99.30
8994;DHT22;4532;50.886;4.700;2022-08-01T09:39:28;25.70;99.20
8994;DHT22;4532;50.886;4.700;2022-08-01T09:41:57;25.60;99.10
8994;DHT22;4532;50.886;4.700;2022-08-01T09:44:41;25.70;99.20
8994;DHT22;4532;50.886;4.700;2022-08-01T09:47:20;25.70;98.90
8994;DHT22;4532;50.886;4.700;2022-08-01T09:49:55;25.60;98.80
8994;DHT22;4532;50.886;4.700;2022-08-01T09:52:27;25.70;98.90
8994;DHT22;4532;50.886;4.700;2022-08-01T09:55:04;25.70;98.90
8994;DHT22;4532;50.886;4.700;2022-08-01T09:57:32;25.70;98.90
8994;DHT22;4532;50.886;4.700;2022-08-01T10:00:03;25.70;99.00
8994;DHT22;4532;50.886;4.700;2022-08-01T10:05:02;25.80;98.80
8994;DHT22;4532;50.886;4.700;2022-08-01T10:10:24;25.70;98.70
8994;DHT22;4532;50.886;4.700;2022-08-01T10:12:59;25.80;98.50
8994;DHT22;4532;50.886;4.700;2022-08-01T10:15:31;25.70;98.30
8994;DHT22;4532;50.886;4.700;2022-08-01T10:18:07;25.70;98.30
8994;DHT22;4532;50.886;4.700;2022-08-01T10:20:51;25.70;98.30
8994;DHT22;4532;50.886;4.700;2022-08-01T10:23:24;25.70;98.30
8994;DHT22;4532;50.886;4.700;2022-08-01T10:26:08;25.70;98.30
8994;DHT22;4532;50.886;4.700;2022-08-01T10:28:39;25.70;98.50
8994;DHT22;4532;50.886;4.700;2022-08-01T10:31:10;25.80;98.50
8994;DHT22;4532;50.886;4.700;2022-08-01T10:33:41;25.80;98.40
8994;DHT22;4532;50.886;4.700;2022-08-01T10:36:22;25.90;98.40
8994;DHT22;4532;50.886;4.700;2022-08-01T10:38:54;26.00;98.50
8994;DHT22;4532;50.886;4.700;2022-08-01T10:41:21;26.00;98.50
8994;DHT22;4532;50.886;4.700;2022-08-01T10:43:51;26.10;98.70
8994;DHT22;4532;50.886;4.700;2022-08-01T10:46:21;26.10;98.40
8994;DHT22;4532;50.886;4.700;2022-08-01T10:51:23;26.30;98.40
8994;DHT22;4532;50.886;4.700;2022-08-01T10:54:15;26.30;98.30
8994;DHT22;4532;50.886;4.700;2022-08-01T10:56:45;26.30;98.20
8994;DHT22;4532;50.886;4.700;2022-08-01T10:59:25;26.40;98.00
8994;DHT22;4532;50.886;4.700;2022-08-01T11:02:29;26.40;98.00
8994;DHT22;4532;50.886;4.700;2022-08-01T11:05:04;26.40;97.90
8994;DHT22;4532;50.886;4.700;2022-08-01T11:12:52;26.50;97.20
8994;DHT22;4532;50.886;4.700;2022-08-01T11:15:21;26.50;97.60
8994;DHT22;4532;50.886;4.700;2022-08-01T11:17:57;26.50;97.70
8994;DHT22;4532;50.886;4.700;2022-08-01T11:20:32;26.50;97.20
8994;DHT22;4532;50.886;4.700;2022-08-01T11:28:25;26.60;97.40
8994;DHT22;4532;50.886;4.700;2022-08-01T11:38:46;26.80;97.60
8994;DHT22;4532;50.886;4.700;2022-08-01T11:49:30;27.00;97.00
8994;DHT22;4532;50.886;4.700;2022-08-01T11:52:10;27.10;96.80
8994;DHT22;4532;50.886;4.700;2022-08-01T11:57:13;27.10;96.70
8994;DHT22;4532;50.886;4.700;2022-08-01T11:59:46;27.10;96.60
8994;DHT22;4532;50.886;4.700;2022-08-01T12:02:32;27.10;96.70
8994;DHT22;4532;50.886;4.700;2022-08-01T12:05:08;27.20;97.20
8994;DHT22;4532;50.886;4.700;2022-08-01T12:07:41;27.20;96.80
8994;DHT22;4532;50.886;4.700;2022-08-01T12:10:12;27.30;96.80
8994;DHT22;4532;50.886;4.700;2022-08-01T12:12:51;27.30;96.60
8994;DHT22;4532;50.886;4.700;2022-08-01T12:15:23;27.30;96.30
8994;DHT22;4532;50.886;4.700;2022-08-01T12:18:06;27.30;96.70
8994;DHT22;4532;50.886;4.700;2022-08-01T12:20:37;27.40;96.60
8994;DHT22;4532;50.886;4.700;2022-08-01T12:23:18;27.40;96.40
8994;DHT22;4532;50.886;4.700;2022-08-01T12:25:51;27.40;96.40
8994;DHT22;4532;50.886;4.700;2022-08-01T12:28:21;27.40;95.70
8994;DHT22;4532;50.886;4.700;2022-08-01T12:30:49;27.30;95.50
8994;DHT22;4532;50.886;4.700;2022-08-01T12:33:18;27.30;95.40
8994;DHT22;4532;50.886;4.700;2022-08-01T12:35:48;27.30;95.50
8994;DHT22;4532;50.886;4.700;2022-08-01T12:38:20;27.30;95.80
8994;DHT22;4532;50.886;4.700;2022-08-01T12:40:52;27.40;95.80
8994;DHT22;4532;50.886;4.700;2022-08-01T12:43:22;27.30;95.70
8994;DHT22;4532;50.886;4.700;2022-08-01T12:45:57;27.40;95.60
8994;DHT22;4532;50.886;4.700;2022-08-01T12:48:26;27.40;95.50
8994;DHT22;4532;50.886;4.700;2022-08-01T12:50:55;27.50;95.70
8994;DHT22;4532;50.886;4.700;2022-08-01T12:53:25;27.50;95.50
8994;DHT22;4532;50.886;4.700;2022-08-01T12:56:08;27.50;95.50
8994;DHT22;4532;50.886;4.700;2022-08-01T12:58:37;27.50;94.90
8994;DHT22;4532;50.886;4.700;2022-08-01T13:01:09;27.50;95.40
8994;DHT22;4532;50.886;4.700;2022-08-01T13:03:38;27.50;94.80
8994;DHT22;4532;50.886;4.700;2022-08-01T13:06:12;27.40;94.20
8994;DHT22;4532;50.886;4.700;2022-08-01T13:08:43;27.40;94.60
8994;DHT22;4532;50.886;4.700;2022-08-01T13:11:14;27.40;94.50
8994;DHT22;4532;50.886;4.700;2022-08-01T13:13:48;27.40;94.80
8994;DHT22;4532;50.886;4.700;2022-08-01T13:16:18;27.40;94.60
8994;DHT22;4532;50.886;4.700;2022-08-01T13:19:05;27.40;94.70
8994;DHT22;4532;50.886;4.700;2022-08-01T13:21:33;27.40;94.60
8994;DHT22;4532;50.886;4.700;2022-08-01T13:24:25;27.40;94.00
8994;DHT22;4532;50.886;4.700;2022-08-01T13:26:57;27.50;94.60
8994;DHT22;4532;50.886;4.700;2022-08-01T13:29:40;27.50;94.60
8994;DHT22;4532;50.886;4.700;2022-08-01T13:32:14;27.60;94.60
8994;DHT22;4532;50.886;4.700;2022-08-01T13:35:06;27.60;94.30
8994;DHT22;4532;50.886;4.700;2022-08-01T13:37:38;27.60;93.40
8994;DHT22;4532;50.886;4.700;2022-08-01T13:40:07;27.50;94.20
8994;DHT22;4532;50.886;4.700;2022-08-01T13:42:34;27.60;94.30
8994;DHT22;4532;50.886;4.700;2022-08-01T13:45:03;27.50;93.50
8994;DHT22;4532;50.886;4.700;2022-08-01T13:47:44;27.40;92.60
8994;DHT22;4532;50.886;4.700;2022-08-01T13:50:33;27.40;93.30
8994;DHT22;4532;50.886;4.700;2022-08-01T13:53:02;27.40;93.30
8994;DHT22;4532;50.886;4.700;2022-08-01T13:55:32;27.50;93.40
8994;DHT22;4532;50.886;4.700;2022-08-01T13:58:01;27.50;93.50
8994;DHT22;4532;50.886;4.700;2022-08-01T14:00:30;27.60;93.70
8994;DHT22;4532;50.886;4.700;2022-08-01T14:02:57;27.60;93.30
8994;DHT22;4532;50.886;4.700;2022-08-01T14:05:24;27.70;93.70
8994;DHT22;4532;50.886;4.700;2022-08-01T14:07:51;27.70;93.40
8994;DHT22;4532;50.886;4.700;2022-08-01T14:10:25;27.70;92.80
8994;DHT22;4532;50.886;4.700;2022-08-01T14:12:52;27.70;93.00
8994;DHT22;4532;50.886;4.700;2022-08-01T14:15:23;27.70;92.60
8994;DHT22;4532;50.886;4.700;2022-08-01T14:18:07;27.70;93.10
8994;DHT22;4532;50.886;4.700;2022-08-01T14:20:39;27.70;93.00
8994;DHT22;4532;50.886;4.700;2022-08-01T14:23:09;27.70;92.90
8994;DHT22;4532;50.886;4.700;2022-08-01T14:25:40;27.70;92.70
8994;DHT22;4532;50.886;4.700;2022-08-01T14:28:28;27.70;93.00
8994;DHT22;4532;50.886;4.700;2022-08-01T14:30:57;27.70;93.00
8994;DHT22;4532;50.886;4.700;2022-08-01T14:33:25;27.70;92.60
8994;DHT22;4532;50.886;4.700;2022-08-01T14:35:53;27.70;92.60
8994;DHT22;4532;50.886;4.700;2022-08-01T14:38:40;27.60;91.80
8994;DHT22;4532;50.886;4.700;2022-08-01T14:41:13;27.70;92.30
8994;DHT22;4532;50.886;4.700;2022-08-01T14:43:43;27.70;92.50
8994;DHT22;4532;50.886;4.700;2022-08-01T14:46:10;27.80;92.60
8994;DHT22;4532;50.886;4.700;2022-08-01T14:48:42;27.80;92.30
8994;DHT22;4532;50.886;4.700;2022-08-01T14:51:09;27.90;92.00
8994;DHT22;4532;50.886;4.700;2022-08-01T14:53:37;27.90;90.80
8994;DHT22;4532;50.886;4.700;2022-08-01T14:56:05;27.90;91.80
8994;DHT22;4532;50.886;4.700;2022-08-01T14:58:34;27.90;90.70
8994;DHT22;4532;50.886;4.700;2022-08-01T15:01:04;27.90;91.40
8994;DHT22;4532;50.886;4.700;2022-08-01T15:03:32;28.00;92.10
8994;DHT22;4532;50.886;4.700;2022-08-01T15:06:02;28.10;91.90
8994;DHT22;4532;50.886;4.700;2022-08-01T15:08:29;28.10;91.90
8994;DHT22;4532;50.886;4.700;2022-08-01T15:10:58;28.10;91.50
8994;DHT22;4532;50.886;4.700;2022-08-01T15:13:27;28.10;91.20
8994;DHT22;4532;50.886;4.700;2022-08-01T15:15:55;28.20;91.70
8994;DHT22;4532;50.886;4.700;2022-08-01T15:18:27;28.20;91.80
8994;DHT22;4532;50.886;4.700;2022-08-01T15:20:55;28.20;91.70
8994;DHT22;4532;50.886;4.700;2022-08-01T15:23:26;28.30;91.10
8994;DHT22;4532;50.886;4.700;2022-08-01T15:25:56;28.30;91.70
8994;DHT22;4532;50.886;4.700;2022-08-01T15:28:24;28.40;91.80
8994;DHT22;4532;50.886;4.700;2022-08-01T15:30:54;28.40;91.40
8994;DHT22;4532;50.886;4.700;2022-08-01T15:33:21;28.50;91.80
8994;DHT22;4532;50.886;4.700;2022-08-01T15:35:51;28.50;91.70
8994;DHT22;4532;50.886;4.700;2022-08-01T15:38:19;28.50;91.10
8994;DHT22;4532;50.886;4.700;2022-08-01T15:40:46;28.50;91.10
8994;DHT22;4532;50.886;4.700;2022-08-01T15:43:13;28.50;90.80
8994;DHT22;4532;50.886;4.700;2022-08-01T15:45:41;28.40;91.20
8994;DHT22;4532;50.886;4.700;2022-08-01T15:48:15;28.50;91.00
8994;DHT22;4532;50.886;4.700;2022-08-01T15:50:43;28.40;90.90
8994;DHT22;4532;50.886;4.700;2022-08-01T15:53:11;28.40;90.50
8994;DHT22;4532;50.886;4.700;2022-08-01T15:55:40;28.40;91.00
8994;DHT22;4532;50.886;4.700;2022-08-01T15:58:17;28.40;91.10
8994;DHT22;4532;50.886;4.700;2022-08-01T16:00:45;28.40;90.90
8994;DHT22;4532;50.886;4.700;2022-08-01T16:03:14;28.40;90.30
8994;DHT22;4532;50.886;4.700;2022-08-01T16:05:44;28.40;91.00
8994;DHT22;4532;50.886;4.700;2022-08-01T16:08:12;28.40;90.70
8994;DHT22;4532;50.886;4.700;2022-08-01T16:10:42;28.50;91.00
8994;DHT22;4532;50.886;4.700;2022-08-01T16:13:10;28.50;91.00
8994;DHT22;4532;50.886;4.700;2022-08-01T16:15:40;28.40;90.30
8994;DHT22;4532;50.886;4.700;2022-08-01T16:18:09;28.50;90.70
8994;DHT22;4532;50.886;4.700;2022-08-01T16:20:36;28.50;90.70
8994;DHT22;4532;50.886;4.700;2022-08-01T16:23:13;28.60;90.70
8994;DHT22;4532;50.886;4.700;2022-08-01T16:25:41;28.60;90.80
8994;DHT22;4532;50.886;4.700;2022-08-01T16:28:11;28.70;90.90
8994;DHT22;4532;50.886;4.700;2022-08-01T16:30:41;28.70;91.00
8994;DHT22;4532;50.886;4.700;2022-08-01T16:33:28;28.80;91.00
8994;DHT22;4532;50.886;4.700;2022-08-01T16:36:18;28.80;90.70
8994;DHT22;4532;50.886;4.700;2022-08-01T16:38:46;28.80;90.70
8994;DHT22;4532;50.886;4.700;2022-08-01T16:41:19;28.80;90.50
8994;DHT22;4532;50.886;4.700;2022-08-01T16:43:48;28.70;89.90
8994;DHT22;4532;50.886;4.700;2022-08-01T16:46:22;28.80;90.40
8994;DHT22;4532;50.886;4.700;2022-08-01T16:48:49;28.70;90.00
8994;DHT22;4532;50.886;4.700;2022-08-01T16:51:19;28.70;89.90
8994;DHT22;4532;50.886;4.700;2022-08-01T16:53:46;28.70;90.00
8994;DHT22;4532;50.886;4.700;2022-08-01T16:56:16;28.70;90.00
8994;DHT22;4532;50.886;4.700;2022-08-01T16:58:43;28.70;89.40
8994;DHT22;4532;50.886;4.700;2022-08-01T17:01:11;28.70;89.00
8994;DHT22;4532;50.886;4.700;2022-08-01T17:04:00;28.70;89.50
8994;DHT22;4532;50.886;4.700;2022-08-01T17:06:30;28.60;88.30
8994;DHT22;4532;50.886;4.700;2022-08-01T17:08:58;28.70;90.00
8994;DHT22;4532;50.886;4.700;2022-08-01T17:11:28;28.70;89.50
8994;DHT22;4532;50.886;4.700;2022-08-01T17:14:03;28.70;89.30
8994;DHT22;4532;50.886;4.700;2022-08-01T17:16:31;28.70;88.60
8994;DHT22;4532;50.886;4.700;2022-08-01T17:18:58;28.70;88.60
8994;DHT22;4532;50.886;4.700;2022-08-01T17:21:25;28.70;88.90
8994;DHT22;4532;50.886;4.700;2022-08-01T17:23:56;28.70;88.90
8994;DHT22;4532;50.886;4.700;2022-08-01T17:26:23;28.70;89.20
8994;DHT22;4532;50.886;4.700;2022-08-01T17:28:53;28.70;88.20
8994;DHT22;4532;50.886;4.700;2022-08-01T17:31:20;28.70;88.90